createdAt,value
2022-12-14T00:04:54.824Z,26.00
2022-12-14T00:09:56.872Z,26.10
2022-12-14T00:14:59.642Z,26.20
2022-12-14T00:20:01.748Z,26.00
2022-12-14T00:25:04.262Z,26.10
2022-12-14T00:35:14.834Z,26.10
2022-12-14T00:40:17.165Z,26.00
2022-12-14T00:45:19.260Z,25.90
2022-12-14T00:50:21.374Z,25.90
2022-12-14T00:55:23.491Z,26.00
2022-12-14T01:00:25.565Z,26.60
2022-12-14T01:05:28.135Z,26.10
2022-12-14T01:10:30.237Z,26.10
2022-12-14T01:15:35.136Z,26.20
2022-12-14T01:20:37.452Z,26.20
2022-12-14T01:25:39.485Z,26.40
2022-12-14T01:30:41.519Z,26.20
2022-12-14T01:35:43.554Z,26.20
2022-12-14T01:40:45.623Z,26.30
2022-12-14T01:45:48.725Z,26.40
2022-12-14T01:50:51.723Z,26.40
2022-12-14T01:55:55.438Z,26.10
2022-12-14T02:01:00.202Z,26.30
2022-12-14T02:06:10.550Z,26.30
2022-12-14T02:11:12.779Z,26.20
2022-12-14T02:16:15.198Z,26.80
2022-12-14T02:21:52.478Z,26.30
2022-12-14T02:27:18.970Z,26.40
2022-12-14T02:32:44.574Z,26.80
2022-12-14T02:37:57.211Z,26.30
2022-12-14T02:43:18.092Z,26.90
2022-12-14T02:48:36.273Z,26.40
2022-12-14T02:54:11.884Z,27.00
2022-12-14T02:59:16.012Z,26.40
2022-12-14T03:04:18.139Z,26.40
2022-12-14T03:09:20.379Z,26.40
2022-12-14T03:14:39.886Z,26.40
2022-12-14T03:19:48.876Z,26.40
2022-12-14T03:25:00.692Z,26.50
2022-12-14T03:30:13.645Z,26.50
2022-12-14T03:35:18.145Z,26.60
2022-12-14T03:40:28.832Z,26.60
2022-12-14T03:45:44.971Z,26.60
2022-12-14T03:51:11.421Z,26.50
2022-12-14T03:56:16.266Z,26.60
2022-12-14T04:01:38.697Z,26.60
2022-12-14T04:06:53.925Z,26.60
2022-12-14T04:12:50.968Z,26.60
2022-12-14T04:18:30.993Z,26.60
2022-12-14T04:24:04.939Z,26.60
2022-12-14T04:29:30.375Z,26.60
2022-12-14T04:34:35.592Z,26.40
2022-12-14T04:39:41.403Z,26.30
2022-12-14T04:44:49.210Z,26.20
2022-12-14T04:50:01.596Z,26.20
2022-12-14T05:00:06.875Z,26.10
2022-12-14T05:05:23.398Z,26.10
2022-12-14T05:10:45.389Z,26.10
2022-12-14T05:15:51.518Z,26.20
2022-12-14T05:20:53.618Z,26.10
2022-12-14T05:25:55.751Z,26.20
2022-12-14T05:30:57.985Z,26.20
2022-12-14T05:36:00.043Z,26.20
2022-12-14T05:41:02.355Z,26.20
2022-12-14T05:46:04.943Z,26.30
2022-12-14T05:51:08.020Z,26.30
2022-12-14T05:56:11.278Z,26.40
2022-12-14T06:01:18.833Z,26.50
2022-12-14T06:06:21.734Z,26.50
2022-12-14T06:11:24.373Z,26.50
2022-12-14T06:16:26.625Z,26.50
2022-12-14T06:21:31.182Z,26.50
2022-12-14T06:26:36.778Z,26.60
2022-12-14T06:31:38.849Z,26.60
2022-12-14T06:36:42.745Z,26.70
2022-12-14T06:41:50.533Z,26.50
2022-12-14T06:46:52.645Z,26.60
2022-12-14T06:51:54.922Z,26.40
2022-12-14T06:56:57.020Z,26.40
2022-12-14T07:01:59.209Z,26.50
2022-12-14T07:07:01.596Z,26.60
2022-12-14T07:17:06.254Z,26.60
2022-12-14T07:22:08.387Z,26.60
2022-12-14T07:27:10.491Z,26.60
2022-12-14T07:32:12.858Z,26.90
2022-12-14T07:42:17.504Z,26.70
2022-12-14T07:47:21.721Z,26.60
2022-12-14T07:52:23.815Z,26.80
2022-12-14T07:57:25.998Z,26.90
2022-12-14T08:02:28.086Z,26.80
2022-12-14T08:07:31.589Z,26.90
2022-12-14T08:12:33.685Z,27.00
2022-12-14T08:17:35.779Z,27.20
2022-12-14T08:22:37.837Z,26.80
2022-12-14T08:27:39.923Z,27.00
2022-12-14T08:32:42.051Z,27.40
2022-12-14T08:37:47.482Z,27.10
2022-12-14T08:42:50.633Z,27.70
2022-12-14T08:47:52.785Z,27.10
2022-12-14T08:52:55.611Z,27.70
2022-12-14T08:57:58.257Z,27.40
2022-12-14T09:08:03.277Z,27.50
2022-12-14T09:13:05.336Z,27.90
2022-12-14T09:18:07.597Z,27.50
2022-12-14T09:23:09.667Z,27.40
2022-12-14T09:28:11.732Z,27.60
2022-12-14T09:33:13.870Z,28.00
2022-12-14T09:38:15.946Z,27.80
2022-12-14T09:43:37.959Z,28.00
2022-12-14T09:48:42.668Z,28.30
2022-12-14T09:53:50.258Z,27.80
2022-12-14T09:58:59.177Z,27.80
2022-12-14T10:04:19.396Z,27.70
2022-12-14T10:10:01.730Z,27.60
2022-12-14T10:15:45.478Z,27.60
2022-12-14T10:20:53.465Z,28.40
2022-12-14T10:26:02.834Z,27.60
2022-12-14T10:31:09.610Z,27.40
2022-12-14T10:36:18.415Z,27.40
2022-12-14T10:41:49.620Z,27.40
2022-12-14T10:47:01.815Z,27.50
2022-12-14T10:52:12.331Z,27.40
2022-12-14T10:57:23.280Z,27.20
2022-12-14T11:02:29.324Z,27.20
2022-12-14T11:07:34.762Z,27.30
2022-12-14T11:12:38.273Z,27.20
2022-12-14T11:17:43.247Z,27.90
2022-12-14T11:22:55.219Z,28.00
2022-12-14T11:28:01.525Z,27.70
2022-12-14T11:33:03.948Z,28.00
2022-12-14T11:38:06.249Z,27.50
2022-12-14T11:43:16.339Z,27.80
2022-12-14T11:48:24.209Z,27.20
2022-12-14T11:53:26.295Z,27.20
2022-12-14T11:58:33.373Z,27.10
2022-12-14T12:03:58.552Z,27.10
2022-12-14T12:09:03.124Z,27.30
2022-12-14T12:14:34.764Z,27.50
2022-12-14T12:19:38.550Z,27.10
2022-12-14T12:25:24.363Z,27.10
2022-12-14T12:30:28.677Z,27.40
2022-12-14T12:36:04.856Z,27.20
2022-12-14T12:41:41.645Z,26.80
2022-12-14T12:47:23.966Z,26.90
2022-12-14T12:52:28.661Z,27.00
2022-12-14T12:57:38.406Z,27.20
2022-12-14T13:02:50.334Z,27.40
2022-12-14T13:08:06.956Z,27.20
2022-12-14T13:13:26.973Z,26.90
2022-12-14T13:24:00.158Z,27.00
2022-12-14T13:34:13.644Z,27.00
2022-12-14T13:39:33.467Z,26.80
2022-12-14T13:44:57.246Z,26.60
2022-12-14T13:55:35.617Z,26.60
2022-12-14T14:00:57.501Z,26.50
2022-12-14T14:06:11.941Z,26.30
2022-12-14T14:11:36.308Z,26.40
2022-12-14T14:16:47.369Z,26.40
2022-12-14T14:22:22.851Z,26.30
2022-12-14T14:27:42.050Z,26.30
2022-12-14T14:32:44.870Z,26.30
2022-12-14T14:38:17.607Z,26.30
2022-12-14T14:43:25.536Z,26.40
2022-12-14T14:48:36.361Z,26.30
2022-12-14T14:53:39.884Z,26.20
2022-12-14T14:58:42.589Z,26.20
2022-12-14T15:03:45.007Z,26.20
2022-12-14T15:08:58.645Z,26.60
2022-12-14T15:14:06.724Z,26.60
2022-12-14T15:19:38.432Z,26.30
2022-12-14T15:24:44.645Z,26.40
2022-12-14T15:29:49.311Z,26.30
2022-12-14T15:34:58.478Z,26.30
2022-12-14T15:40:04.921Z,26.40
2022-12-14T15:45:14.364Z,26.30
2022-12-14T15:50:22.185Z,26.30
2022-12-14T15:55:34.547Z,26.30
2022-12-14T16:00:42.489Z,26.50
2022-12-14T16:05:45.628Z,26.30
2022-12-14T16:10:53.064Z,26.10
2022-12-14T16:15:57.777Z,26.30
2022-12-14T16:21:02.218Z,26.40
2022-12-14T16:26:23.480Z,26.20
2022-12-14T16:31:27.428Z,26.40
2022-12-14T16:36:32.260Z,26.10
2022-12-14T16:41:44.355Z,26.10
2022-12-14T16:52:09.970Z,26.20
2022-12-14T17:02:24.139Z,26.20
2022-12-14T17:07:30.037Z,26.20
2022-12-14T17:12:32.412Z,26.10
2022-12-14T17:17:36.336Z,26.00
2022-12-14T17:22:38.620Z,26.00
2022-12-14T17:32:44.331Z,26.10
2022-12-14T17:37:46.742Z,26.00
2022-12-14T17:42:57.401Z,26.00
2022-12-14T17:47:59.528Z,25.90
2022-12-14T17:53:01.605Z,25.90
2022-12-14T17:58:03.930Z,25.90
2022-12-14T18:03:06.686Z,25.80
2022-12-14T18:08:09.856Z,26.00
2022-12-14T18:13:13.357Z,26.00
2022-12-14T18:18:15.484Z,26.10
2022-12-14T18:23:19.293Z,26.10
2022-12-14T18:28:22.207Z,26.20
2022-12-14T18:33:26.915Z,26.10
2022-12-14T18:38:29.282Z,26.20
2022-12-14T18:48:34.963Z,26.00
2022-12-14T18:53:37.119Z,26.00
2022-12-14T18:58:42.036Z,26.00
2022-12-14T19:03:45.201Z,26.10
2022-12-14T19:08:47.443Z,26.20
2022-12-14T19:13:51.749Z,26.30
2022-12-14T19:18:53.915Z,26.30
2022-12-14T19:23:56.250Z,26.40
2022-12-14T19:28:58.948Z,26.40
2022-12-14T19:34:01.035Z,26.40
2022-12-14T19:39:03.276Z,26.40
2022-12-14T19:44:05.343Z,26.40
2022-12-14T19:49:09.328Z,26.30
2022-12-14T19:54:11.941Z,26.30
2022-12-14T19:59:14.148Z,26.30
2022-12-14T20:04:16.476Z,26.50
2022-12-14T20:09:19.045Z,26.20
2022-12-14T20:14:21.137Z,26.00
2022-12-14T20:19:23.538Z,25.90
2022-12-14T20:24:25.651Z,25.90
2022-12-14T20:34:30.855Z,25.70
2022-12-14T20:39:32.952Z,25.80
2022-12-14T20:44:35.108Z,25.80
2022-12-14T20:49:38.946Z,25.80
2022-12-14T20:54:41.050Z,25.70
2022-12-14T20:59:43.120Z,25.80
2022-12-14T21:04:45.309Z,25.60
2022-12-14T21:14:54.653Z,25.70
2022-12-14T21:19:57.604Z,25.50
2022-12-14T21:25:03.774Z,25.80
2022-12-14T21:30:11.260Z,25.80
2022-12-14T21:40:39.847Z,26.00
2022-12-14T21:45:41.979Z,26.00
2022-12-14T21:50:45.324Z,25.90
2022-12-14T21:55:50.689Z,26.00
2022-12-14T22:00:52.799Z,25.90
2022-12-14T22:05:54.781Z,26.10
2022-12-14T22:11:02.521Z,26.20
2022-12-14T22:16:07.556Z,26.50
2022-12-14T22:21:09.955Z,26.20
2022-12-14T22:26:12.251Z,26.30
2022-12-14T22:31:14.334Z,26.10
2022-12-14T22:36:16.914Z,26.10
2022-12-14T22:41:20.393Z,26.60
2022-12-14T22:46:24.266Z,26.30
2022-12-14T22:56:41.558Z,26.40
2022-12-14T23:01:49.676Z,26.50
2022-12-14T23:06:54.091Z,26.50
2022-12-14T23:12:19.678Z,26.50
2022-12-14T23:17:42.706Z,26.50
2022-12-14T23:23:03.374Z,26.50
2022-12-14T23:28:24.322Z,26.50
2022-12-14T23:33:45.698Z,26.50
2022-12-14T23:39:06.423Z,26.40
2022-12-14T23:44:27.211Z,26.40
2022-12-14T23:49:48.074Z,26.40
2022-12-14T23:55:08.782Z,26.40
